Time;durP1;ratioP1;P1;durP2;ratioP2;P2;SDS_P1;SDS_P2;PMS_P1;PMS_P2;Temp;Humidity;BMP_temperature;BMP_pressure;BME280_temperature;BME280_humidity;BME280_pressure;Samples;Min_cycle;Max_cycle;Signal;HPM_P1;HPM_P2
2021/11/24 00:04:35;;;;;;;;;;;;;;;20.46;35.04;101864.42;97517;1408;60025;-81
2021/11/24 00:11:05;;;;;;;;;;;;;;;20.47;35.15;101877.29;97373;1411;73340;-82
2021/11/24 00:14:11;;;;;;;;;;;;;;;20.47;35.03;101872.79;97552;1408;61530;-81
2021/11/24 00:20:43;;;;;;;;;;;;;;;20.47;35.14;101883.15;97560;1406;74434;-81
2021/11/24 00:30:40;;;;;;;;;;;;;;;20.50;35.03;101883.04;101233;1355;600099;-81
2021/11/24 00:34:31;;;;;;;;;;;;;;;20.48;35.00;101886.90;101278;1367;70152;-81
2021/11/24 00:48:01;;;;;;;;;;;;;;;;;;;;;
2021/11/24 00:51:27;;;;;;;;;;;;;;;;;;;;;
2021/11/24 00:54:53;;;;;;;;;;;;;;;;;;;;;
2021/11/24 01:01:27;;;;;;;;;;;;;;;;;;;;;
2021/11/24 01:04:31;;;;;;;;;;;;;;;;;;;;;
2021/11/24 01:07:57;;;;;;;;;;;;;;;;;;;;;
2021/11/24 01:18:03;;;;;;;;;;;;;;;;;;;;;
2021/11/24 01:24:56;;;;;;;;;;;;;;;20.49;34.95;101889.84;97264;1410;60842;-80
2021/11/24 01:28:06;;;;;;;;;;;;;;;20.49;34.81;101890.20;97136;1410;72402;-81
2021/11/24 01:34:40;;;;;;;;;;;;;;;20.51;34.84;101897.79;100655;1363;600492;-80
2021/11/24 01:45:09;;;;;;;;;;;;;;;20.49;34.66;101894.31;99672;1374;60611;-80
2021/11/24 01:48:03;;;;;;;;;;;;;;;;;;;;;
2021/11/24 01:51:30;;;;;;;;;;;;;;;20.49;34.72;101891.98;99277;1389;71569;-81
2021/11/24 01:54:46;;;;;;;;;;;;;;;;;;;;;
2021/11/24 02:08:45;;;;;;;;;;;;;;;20.50;34.74;101887.15;97521;1409;72062;-81
2021/11/24 02:12:12;;;;;;;;;;;;;;;20.50;34.63;101877.13;97511;1402;59647;-81
2021/11/24 02:15:36;;;;;;;;;;;;;;;20.50;34.60;101882.65;97347;1408;59729;-81
2021/11/24 02:18:17;;;;;;;;;;;;;;;20.50;34.57;101882.48;97773;1403;74411;-82
2021/11/24 02:21:33;;;;;;;;;;;;;;;;;;;;;
2021/11/24 02:25:10;;;;;;;;;;;;;;;;;;;;;
2021/11/24 02:28:15;;;;;;;;;;;;;;;;;;;;;
2021/11/24 02:31:31;;;;;;;;;;;;;;;;;;;;;
2021/11/24 02:34:40;;;;;;;;;;;;;;;;;;;;;
2021/11/24 02:48:15;;;;;;;;;;;;;;;;;;;;;
2021/11/24 02:54:47;;;;;;;;;;;;;;;;;;;;;
2021/11/24 02:58:46;;;;;;;;;;;;;;;20.51;34.53;101899.77;99561;1378;59221;-81
2021/11/24 03:08:28;;;;;;;;;;;;;;;;;;;;;
2021/11/24 03:14:56;;;;;;;;;;;;;;;20.54;34.31;101906.77;101293;1361;599975;-81
2021/11/24 03:25:11;;;;;;;;;;;;;;;;;;;;;
2021/11/24 03:28:38;;;;;;;;;;;;;;;20.52;34.41;101925.65;95832;1385;5368181;-81
2021/11/24 03:42:03;;;;;;;;;;;;;;;20.52;34.55;101933.48;96744;1421;60044;-81
2021/11/24 03:45:11;;;;;;;;;;;;;;;20.53;34.44;101933.84;96323;1427;74083;-81
2021/11/24 03:48:01;;;;;;;;;;;;;;;20.53;34.43;101936.33;96244;1426;73466;-81
2021/11/24 03:51:18;;;;;;;;;;;;;;;;;;;;;
2021/11/24 03:54:30;;;;;;;;;;;;;;;20.53;34.25;101938.46;96309;1420;62075;-81
2021/11/24 03:57:40;;;;;;;;;;;;;;;20.53;34.34;101938.30;96323;1419;73147;-81
2021/11/24 04:00:41;;;;;;;;;;;;;;;20.53;34.38;101942.08;96137;1430;74549;-81
2021/11/24 04:03:55;;;;;;;;;;;;;;;20.52;34.38;101944.96;96619;1419;61922;-81
2021/11/24 04:11:13;;;;;;;;;;;;;;;20.52;34.38;101952.28;97182;1410;71772;-81
2021/11/24 04:21:00;;;;;;;;;;;;;;;;;;;;;
2021/11/24 04:24:26;;;;;;;;;;;;;;;;;;;;;
2021/11/24 04:31:44;;;;;;;;;;;;;;;20.53;34.24;101961.35;98569;1400;61814;-82
2021/11/24 04:34:30;;;;;;;;;;;;;;;20.54;34.29;101961.50;98596;1400;59639;-82
2021/11/24 04:37:49;;;;;;;;;;;;;;;;;;;;;
2021/11/24 04:44:19;;;;;;;;;;;;;;;;;;;;;
2021/11/24 04:47:19;;;;;;;;;;;;;;;;;;;;;
2021/11/24 04:50:31;;;;;;;;;;;;;;;;;;;;;
2021/11/24 04:53:58;;;;;;;;;;;;;;;20.52;34.16;101978.56;97170;1407;72093;-81
2021/11/24 04:57:14;;;;;;;;;;;;;;;;;;;;;
2021/11/24 05:00:29;;;;;;;;;;;;;;;20.53;34.10;101985.18;96889;1417;61457;-82
2021/11/24 05:07:13;;;;;;;;;;;;;;;;;;;;;
2021/11/24 05:10:29;;;;;;;;;;;;;;;;;;;;;
2021/11/24 05:20:45;;;;;;;;;;;;;;;20.49;34.08;102017.18;96608;1417;74305;-80
2021/11/24 05:23:48;;;;;;;;;;;;;;;;;;;;;
2021/11/24 05:30:35;;;;;;;;;;;;;;;;;;;;;
2021/11/24 05:33:53;;;;;;;;;;;;;;;20.50;34.08;102041.64;96550;1415;72335;-81
2021/11/24 05:37:26;;;;;;;;;;;;;;;20.46;33.96;102040.73;96574;1416;59829;-80
2021/11/24 05:40:18;;;;;;;;;;;;;;;20.40;33.99;102052.15;96733;1413;60699;-79
2021/11/24 05:43:14;;;;;;;;;;;;;;;20.34;33.92;102059.23;96747;1409;73096;-79
2021/11/24 05:50:06;;;;;;;;;;;;;;;;;;;;;
2021/11/24 05:53:40;;;;;;;;;;;;;;;20.11;34.51;102074.95;96430;1411;62191;-79
2021/11/24 05:56:12;;;;;;;;;;;;;;;20.06;34.65;102080.02;96663;1405;74166;-80
2021/11/24 05:59:25;;;;;;;;;;;;;;;20.01;34.67;102082.21;97564;1393;74057;-80
2021/11/24 06:02:00;;;;;;;;;;;;;;;19.96;34.81;102089.45;97882;1392;60632;-78
2021/11/24 06:04:30;;;;;;;;;;;;;;;19.86;34.63;102087.00;99377;1392;62152;-79
2021/11/24 06:06:55;;;;;;;;;;;;;;;19.80;34.66;102093.36;99541;1381;73119;-79
2021/11/24 06:09:22;;;;;;;;;;;;;;;19.76;34.80;102094.39;99633;1386;58237;-79
2021/11/24 06:12:14;;;;;;;;;;;;;;;19.74;34.80;102096.09;98662;1379;59695;-79
2021/11/24 06:14:52;;;;;;;;;;;;;;;19.74;34.84;102097.70;99096;1374;61491;-80
2021/11/24 06:17:38;;;;;;;;;;;;;;;19.76;34.74;102096.89;99095;1377;73129;-78
2021/11/24 06:21:02;;;;;;;;;;;;;;;19.79;34.75;102098.55;99288;1370;74333;-79
2021/11/24 06:24:18;;;;;;;;;;;;;;;19.85;34.71;102105.30;99772;1368;61369;-79
2021/11/24 06:27:10;;;;;;;;;;;;;;;;;;;;;
2021/11/24 06:30:24;;;;;;;;;;;;;;;19.91;34.59;102116.80;99434;1367;71553;-79
2021/11/24 06:33:35;;;;;;;;;;;;;;;19.91;34.73;102117.67;99236;1377;74646;-79
2021/11/24 06:36:59;;;;;;;;;;;;;;;19.92;34.62;102121.19;99375;1374;59967;-79
2021/11/24 06:39:37;;;;;;;;;;;;;;;19.94;34.57;102130.45;99298;1374;60488;-78
2021/11/24 06:42:20;;;;;;;;;;;;;;;19.93;34.64;102132.79;99312;1374;73557;-79
2021/11/24 06:45:46;;;;;;;;;;;;;;;;;;;;;
2021/11/24 06:48:43;;;;;;;;;;;;;;;19.90;34.55;102137.00;99170;1373;59825;-79
2021/11/24 06:52:00;;;;;;;;;;;;;;;19.94;34.65;102142.60;99125;1368;59871;-79
2021/11/24 06:54:50;;;;;;;;;;;;;;;;;;;;;
2021/11/24 06:57:23;;;;;;;;;;;;;;;19.70;34.50;102147.88;99609;1368;74263;-79
2021/11/24 07:00:53;;;;;;;;;;;;;;;19.52;34.59;102150.29;99447;1371;59773;-80
2021/11/24 07:03:23;;;;;;;;;;;;;;;19.30;34.68;102155.31;99463;1371;61101;-79
2021/11/24 07:06:54;;;;;;;;;;;;;;;19.22;34.85;102159.06;99544;1367;73235;-78
2021/11/24 07:09:22;;;;;;;;;;;;;;;;;;;;;
2021/11/24 07:12:11;;;;;;;;;;;;;;;19.18;35.14;102164.02;99637;1366;59999;-79
2021/11/24 07:15:27;;;;;;;;;;;;;;;;;;;;;
2021/11/24 07:18:39;;;;;;;;;;;;;;;19.06;35.39;102166.14;99282;1371;73062;-78
2021/11/24 07:21:30;;;;;;;;;;;;;;;19.00;35.50;102168.35;98691;1377;74613;-78
2021/11/24 07:23:56;;;;;;;;;;;;;;;19.03;35.68;102177.16;99681;1386;60451;-78
2021/11/24 07:26:22;;;;;;;;;;;;;;;19.12;35.95;102175.73;99648;1384;58389;-79
2021/11/24 07:28:56;;;;;;;;;;;;;;;19.23;36.09;102182.92;99710;1386;57926;-78
2021/11/24 07:31:33;;;;;;;;;;;;;;;19.34;36.56;102187.66;98570;1384;73169;-78
2021/11/24 07:34:40;;;;;;;;;;;;;;;19.44;36.80;102192.43;98342;1384;59811;-78
2021/11/24 07:37:31;;;;;;;;;;;;;;;19.47;36.77;102189.61;97899;1390;60567;-79
2021/11/24 07:40:32;;;;;;;;;;;;;;;;;;;;;
2021/11/24 07:43:31;;;;;;;;;;;;;;;;;;;;;
2021/11/24 07:46:32;;;;;;;;;;;;;;;19.43;36.59;102197.98;99292;1390;59202;-79
2021/11/24 07:49:07;;;;;;;;;;;;;;;19.39;36.62;102201.90;99452;1388;60640;-80
2021/11/24 07:51:32;;;;;;;;;;;;;;;19.30;36.55;102204.27;99365;1391;73950;-78
2021/11/24 07:54:01;;;;;;;;;;;;;;;19.15;36.60;102206.30;99185;1390;58372;-79
2021/11/24 07:56:26;;;;;;;;;;;;;;;19.09;36.49;102206.34;99707;1382;60329;-79
2021/11/24 07:59:04;;;;;;;;;;;;;;;18.99;36.50;102206.73;98638;1381;60555;-78
2021/11/24 08:01:39;;;;;;;;;;;;;;;18.76;36.48;102205.64;98950;1375;74639;-78
2021/11/24 08:04:18;;;;;;;;;;;;;;;18.64;36.60;102202.75;100715;1371;74137;-79
2021/11/24 08:06:46;;;;;;;;;;;;;;;18.66;36.66;102198.73;100040;1370;60192;-79
2021/11/24 08:09:52;;;;;;;;;;;;;;;18.79;36.82;102198.42;99481;1370;59666;-78
2021/11/24 08:15:29;;;;;;;;;;;;;;;19.01;36.61;102202.38;99403;1367;75430;-78
2021/11/24 08:18:28;;;;;;;;;;;;;;;19.08;36.51;102202.10;99660;1365;59715;-79
2021/11/24 08:21:44;;;;;;;;;;;;;;;19.09;36.54;102198.31;99755;1365;60545;-80
2021/11/24 08:24:17;;;;;;;;;;;;;;;19.14;36.44;102202.42;101018;1368;72611;-80
2021/11/24 08:27:19;;;;;;;;;;;;;;;19.21;36.50;102200.30;101063;1367;72897;-80
2021/11/24 08:30:51;;;;;;;;;;;;;;;19.27;36.45;102197.23;99733;1368;60476;-79
2021/11/24 08:33:11;;;;;;;;;;;;;;;19.31;36.42;102199.56;100607;1368;59658;-78
2021/11/24 08:39:32;;;;;;;;;;;;;;;;;;;;;
2021/11/24 08:42:25;;;;;;;;;;;;;;;19.40;36.40;102204.16;100023;1377;59353;-79
2021/11/24 08:45:14;;;;;;;;;;;;;;;;;;;;;
2021/11/24 08:47:52;;;;;;;;;;;;;;;19.46;36.24;102207.88;98927;1377;74083;-80
2021/11/24 08:51:08;;;;;;;;;;;;;;;19.44;36.25;102209.20;98995;1377;72526;-79
2021/11/24 08:53:44;;;;;;;;;;;;;;;;;;;;;
2021/11/24 08:56:30;;;;;;;;;;;;;;;19.33;36.07;102200.57;100353;1374;61067;-79
2021/11/24 08:59:25;;;;;;;;;;;;;;;19.26;36.43;102200.13;99151;1374;73748;-79
2021/11/24 09:02:02;;;;;;;;;;;;;;;19.27;36.62;102197.05;99117;1373;74087;-80
2021/11/24 09:04:50;;;;;;;;;;;;;;;19.28;36.66;102197.02;99115;1374;60674;-80
2021/11/24 09:08:10;;;;;;;;;;;;;;;19.29;36.60;102199.45;99092;1374;60580;-79
2021/11/24 09:10:52;;;;;;;;;;;;;;;19.31;36.58;102195.98;99140;1374;71538;-79
2021/11/24 09:13:26;;;;;;;;;;;;;;;19.32;36.58;102194.17;99017;1373;75453;-79
2021/11/24 09:16:07;;;;;;;;;;;;;;;19.31;36.53;102193.70;99136;1370;60792;-78
2021/11/24 09:19:04;;;;;;;;;;;;;;;;;;;;;
2021/11/24 09:21:42;;;;;;;;;;;;;;;19.25;36.54;102186.56;100915;1367;72708;-79
2021/11/24 09:24:25;;;;;;;;;;;;;;;;;;;;;
2021/11/24 09:30:29;;;;;;;;;;;;;;;19.28;36.46;102186.29;100266;1365;60573;-78
2021/11/24 09:33:44;;;;;;;;;;;;;;;19.35;36.41;102184.74;99669;1372;72912;-79
2021/11/24 09:36:51;;;;;;;;;;;;;;;19.44;36.25;102186.86;99385;1371;74211;-79
2021/11/24 09:39:50;;;;;;;;;;;;;;;19.53;36.08;102188.63;99779;1371;60725;-79
2021/11/24 09:42:51;;;;;;;;;;;;;;;19.61;36.02;102185.08;99008;1375;59315;-80
2021/11/24 09:45:32;;;;;;;;;;;;;;;;;;;;;
2021/11/24 09:49:07;;;;;;;;;;;;;;;19.66;35.93;102183.64;99062;1374;75591;-79
2021/11/24 09:51:44;;;;;;;;;;;;;;;19.65;35.86;102179.90;98781;1377;60669;-79
2021/11/24 09:54:43;;;;;;;;;;;;;;;;;;;;;
2021/11/24 09:57:23;;;;;;;;;;;;;;;19.53;35.71;102179.19;98845;1377;74443;-80
2021/11/24 10:00:02;;;;;;;;;;;;;;;19.42;35.65;102180.36;98818;1377;75233;-79
2021/11/24 10:02:42;;;;;;;;;;;;;;;19.32;35.74;102177.58;98570;1380;61565;-79
2021/11/24 10:05:33;;;;;;;;;;;;;;;19.22;35.91;102176.91;100136;1378;61606;-79
2021/11/24 10:08:21;;;;;;;;;;;;;;;19.20;36.19;102175.58;99590;1377;73918;-79
2021/11/24 10:11:20;;;;;;;;;;;;;;;19.22;36.34;102172.09;98834;1378;74938;-79
2021/11/24 10:14:27;;;;;;;;;;;;;;;;;;;;;
2021/11/24 10:17:17;;;;;;;;;;;;;;;19.29;36.37;102168.97;99263;1381;60592;-79
2021/11/24 10:20:11;;;;;;;;;;;;;;;19.32;36.37;102163.10;99963;1373;72897;-79
2021/11/24 10:23:17;;;;;;;;;;;;;;;19.37;36.42;102158.61;99576;1369;75552;-79
2021/11/24 10:25:46;;;;;;;;;;;;;;;19.38;36.30;102155.90;99738;1365;60601;-79
2021/11/24 10:28:52;;;;;;;;;;;;;;;19.36;36.31;102148.31;99825;1365;60463;-79
2021/11/24 10:31:58;;;;;;;;;;;;;;;19.36;36.32;102142.41;98842;1377;72046;-79
2021/11/24 10:34:49;;;;;;;;;;;;;;;19.37;36.39;102140.20;98168;1389;73014;-78
2021/11/24 10:37:43;;;;;;;;;;;;;;;19.40;36.37;102134.37;98175;1387;60482;-78
2021/11/24 10:40:21;;;;;;;;;;;;;;;19.47;36.39;102130.86;98213;1386;60587;-80
2021/11/24 10:43:06;;;;;;;;;;;;;;;;;;;;;
2021/11/24 10:45:53;;;;;;;;;;;;;;;;;;;;;
2021/11/24 10:48:38;;;;;;;;;;;;;;;19.60;36.25;102131.89;98603;1394;60571;-79
2021/11/24 10:51:31;;;;;;;;;;;;;;;19.56;36.17;102124.23;98069;1387;60475;-78
2021/11/24 10:54:30;;;;;;;;;;;;;;;19.45;36.23;102124.71;98075;1385;73933;-79
2021/11/24 10:57:16;;;;;;;;;;;;;;;19.36;36.22;102124.20;99454;1385;72838;-79
2021/11/24 10:59:42;;;;;;;;;;;;;;;19.27;36.36;102120.31;99547;1390;58430;-79
2021/11/24 11:02:20;;;;;;;;;;;;;;;19.27;36.42;102114.75;99489;1388;59072;-78
2021/11/24 11:05:08;;;;;;;;;;;;;;;19.29;36.44;102111.31;99544;1386;74309;-79
2021/11/24 11:08:02;;;;;;;;;;;;;;;;;;;;;
2021/11/24 11:11:04;;;;;;;;;;;;;;;;;;;;;
2021/11/24 11:13:44;;;;;;;;;;;;;;;19.21;36.36;102097.89;101539;1366;60473;-80
2021/11/24 11:16:21;;;;;;;;;;;;;;;19.22;36.34;102097.65;101471;1359;72275;-80
2021/11/24 11:18:55;;;;;;;;;;;;;;;19.21;36.44;102087.69;101009;1366;75159;-80
2021/11/24 11:21:50;;;;;;;;;;;;;;;19.22;36.41;102089.45;100121;1362;62556;-80
2021/11/24 11:24:50;;;;;;;;;;;;;;;;;;;;;
2021/11/24 11:27:44;;;;;;;;;;;;;;;19.35;36.45;102085.50;97582;1365;2963594;-80
2021/11/24 11:30:52;;;;;;;;;;;;;;;19.43;36.40;102082.13;99608;1368;74066;-80
2021/11/24 11:34:05;;;;;;;;;;;;;;;;;;;;;
2021/11/24 11:37:23;;;;;;;;;;;;;;;19.58;36.50;102078.78;99316;1374;61642;-78
2021/11/24 11:40:53;;;;;;;;;;;;;;;19.65;36.37;102082.40;99433;1371;72851;-79
2021/11/24 11:43:15;;;;;;;;;;;;;;;19.68;36.27;102077.62;100219;1374;72881;-80
2021/11/24 11:45:41;;;;;;;;;;;;;;;19.69;36.36;102073.99;100353;1374;59805;-80
2021/11/24 11:48:21;;;;;;;;;;;;;;;19.68;36.31;102067.96;100547;1374;58917;-80
2021/11/24 11:50:54;;;;;;;;;;;;;;;19.67;36.30;102066.77;99135;1373;72808;-79
2021/11/24 11:53:34;;;;;;;;;;;;;;;19.66;36.22;102066.47;100565;1369;74019;-79
2021/11/24 11:56:05;;;;;;;;;;;;;;;19.64;36.11;102062.98;100804;1370;61411;-80
2021/11/24 11:58:34;;;;;;;;;;;;;;;19.56;36.26;102056.89;100885;1371;61779;-80
2021/11/24 12:01:28;;;;;;;;;;;;;;;19.52;36.28;102060.46;100910;1370;74059;-80
2021/11/24 12:04:02;;;;;;;;;;;;;;;19.48;36.24;102059.23;101334;1368;74888;-80
2021/11/24 12:06:29;;;;;;;;;;;;;;;19.47;36.34;102055.69;101296;1364;60399;-80
2021/11/24 12:09:20;;;;;;;;;;;;;;;19.49;36.42;102051.67;99799;1367;61316;-79
2021/11/24 12:12:41;;;;;;;;;;;;;;;19.51;36.39;102053.59;100547;1362;71626;-82
2021/11/24 12:15:17;;;;;;;;;;;;;;;19.56;36.37;102050.11;100584;1359;73402;-78
2021/11/24 12:18:17;;;;;;;;;;;;;;;19.59;36.41;102049.42;101843;1359;60075;-79
2021/11/24 12:21:48;;;;;;;;;;;;;;;19.59;36.33;102049.59;101103;1350;61781;-79
2021/11/24 12:24:06;;;;;;;;;;;;;;;19.37;36.24;102043.63;101579;1353;72653;-81
2021/11/24 12:27:23;;;;;;;;;;;;;;;;;;;;;
2021/11/24 12:33:48;;;;;;;;;;;;;;;;;;;;;
2021/11/24 12:36:45;;;;;;;;;;;;;;;19.19;36.54;102025.84;100660;1362;72985;-81
2021/11/24 12:46:03;;;;;;;;;;;;;;;;;;;;;
2021/11/24 12:48:29;;;;;;;;;;;;;;;18.96;36.46;102027.02;99209;1376;73859;-77
2021/11/24 12:51:24;;;;;;;;;;;;;;;18.96;36.77;102017.92;100012;1377;74229;-78
2021/11/24 12:53:51;;;;;;;;;;;;;;;19.01;36.85;102018.79;99875;1376;60441;-79
2021/11/24 12:56:19;;;;;;;;;;;;;;;18.96;36.81;102015.64;99840;1375;60783;-79
2021/11/24 12:59:06;;;;;;;;;;;;;;;18.93;36.72;102012.17;99724;1384;71641;-79
2021/11/24 13:01:33;;;;;;;;;;;;;;;18.98;36.95;102008.05;99113;1390;58349;-79
2021/11/24 13:04:05;;;;;;;;;;;;;;;19.03;36.98;102006.95;99764;1383;60300;-79
2021/11/24 13:06:31;;;;;;;;;;;;;;;19.06;36.84;102002.31;99762;1386;59335;-79
2021/11/24 13:09:10;;;;;;;;;;;;;;;19.12;37.04;102001.89;100150;1380;58426;-79
2021/11/24 13:11:42;;;;;;;;;;;;;;;19.18;37.09;102004.15;100176;1376;75471;-78
2021/11/24 13:14:18;;;;;;;;;;;;;;;19.21;37.01;101999.73;100503;1374;61344;-78
2021/11/24 13:16:44;;;;;;;;;;;;;;;19.26;37.06;101997.52;100563;1373;61067;-78
2021/11/24 13:19:09;;;;;;;;;;;;;;;19.34;36.98;101997.02;100861;1371;58881;-78
2021/11/24 13:21:35;;;;;;;;;;;;;;;19.41;36.87;101996.67;101327;1368;58754;-79
2021/11/24 13:24:01;;;;;;;;;;;;;;;19.48;36.82;101992.63;101909;1359;58238;-78
2021/11/24 13:26:30;;;;;;;;;;;;;;;19.55;36.80;101990.70;101917;1359;61584;-78
2021/11/24 13:29:15;;;;;;;;;;;;;;;19.62;36.77;101993.43;101287;1358;60594;-78
2021/11/24 13:35:39;;;;;;;;;;;;;;;19.69;36.43;101994.54;100056;1368;60461;-79
2021/11/24 13:38:34;;;;;;;;;;;;;;;;;;;;;
2021/11/24 13:42:28;;;;;;;;;;;;;;;19.66;36.31;101999.69;100527;1362;74375;-80
2021/11/24 13:45:20;;;;;;;;;;;;;;;;;;;;;
2021/11/24 13:54:52;;;;;;;;;;;;;;;;;;;;;
2021/11/24 13:58:19;;;;;;;;;;;;;;;;;;;;;
2021/11/24 14:01:06;;;;;;;;;;;;;;;19.58;36.04;101995.35;96489;1410;60751;-79
2021/11/24 14:07:42;;;;;;;;;;;;;;;;;;;;;
2021/11/24 14:10:28;;;;;;;;;;;;;;;;;;;;;
2021/11/24 14:13:55;;;;;;;;;;;;;;;19.71;35.90;101996.21;96308;1416;61403;-79
2021/11/24 14:20:49;;;;;;;;;;;;;;;19.82;35.76;101991.41;100815;1357;602234;-80
2021/11/24 14:28:07;;;;;;;;;;;;;;;19.89;35.85;101987.55;100814;1369;61842;-80
2021/11/24 14:31:09;;;;;;;;;;;;;;;19.93;35.86;101988.45;100191;1369;59713;-78
2021/11/24 14:34:14;;;;;;;;;;;;;;;19.96;35.86;101987.57;96334;1372;5362912;-80
2021/11/24 14:38:04;;;;;;;;;;;;;;;19.99;35.87;101986.89;99824;1376;71201;-81
2021/11/24 14:44:21;;;;;;;;;;;;;;;20.03;35.79;101987.98;98330;1396;59412;-78
2021/11/24 14:47:57;;;;;;;;;;;;;;;20.05;35.81;101987.67;98355;1393;72909;-79
2021/11/24 14:50:48;;;;;;;;;;;;;;;;;;;;;
2021/11/24 14:54:41;;;;;;;;;;;;;;;20.10;35.76;101985.81;98324;1396;59715;-80
2021/11/24 14:58:07;;;;;;;;;;;;;;;20.12;35.68;101984.48;98172;1403;60228;-80
2021/11/24 15:08:25;;;;;;;;;;;;;;;20.17;35.76;101982.61;97148;1414;59863;-81
2021/11/24 15:11:16;;;;;;;;;;;;;;;;;;;;;
2021/11/24 15:14:13;;;;;;;;;;;;;;;20.19;35.66;101983.23;96847;1414;73084;-79
2021/11/24 15:17:01;;;;;;;;;;;;;;;20.20;35.65;101980.71;97107;1413;74476;-79
2021/11/24 15:20:52;;;;;;;;;;;;;;;20.21;35.75;101979.77;96847;1414;59846;-80
2021/11/24 15:23:43;;;;;;;;;;;;;;;;;;;;;
2021/11/24 15:26:59;;;;;;;;;;;;;;;;;;;;;
2021/11/24 15:34:07;;;;;;;;;;;;;;;;;;;;;
2021/11/24 15:37:12;;;;;;;;;;;;;;;;;;;;;
2021/11/24 15:44:36;;;;;;;;;;;;;;;20.26;35.35;101979.15;96653;1416;72501;-81
2021/11/24 15:54:20;;;;;;;;;;;;;;;;;;;;;
2021/11/24 15:57:10;;;;;;;;;;;;;;;20.30;35.37;101982.55;101283;1354;599947;-81
2021/11/24 16:00:27;;;;;;;;;;;;;;;;;;;;;
2021/11/24 16:04:18;;;;;;;;;;;;;;;20.28;35.25;101984.96;101619;1359;59247;-80
2021/11/24 16:10:35;;;;;;;;;;;;;;;;;;;;;
2021/11/24 16:24:44;;;;;;;;;;;;;;;20.31;35.33;101983.93;98693;1396;71690;-82
2021/11/24 16:27:26;;;;;;;;;;;;;;;20.31;35.27;101991.24;98694;1397;74420;-81
2021/11/24 16:30:32;;;;;;;;;;;;;;;20.32;35.21;101990.48;98342;1398;61278;-80
2021/11/24 16:36:53;;;;;;;;;;;;;;;20.33;35.22;101993.86;96859;1418;73919;-81
2021/11/24 16:43:19;;;;;;;;;;;;;;;;;;;;;
2021/11/24 16:46:25;;;;;;;;;;;;;;;;;;;;;
2021/11/24 16:56:37;;;;;;;;;;;;;;;;;;;;;
2021/11/24 17:00:35;;;;;;;;;;;;;;;20.35;35.00;101998.56;100336;1368;75143;-81
2021/11/24 17:03:25;;;;;;;;;;;;;;;;;;;;;
2021/11/24 17:13:26;;;;;;;;;;;;;;;20.38;34.97;101998.40;98549;1401;71246;-81
2021/11/24 17:16:52;;;;;;;;;;;;;;;;;;;;;
2021/11/24 17:20:32;;;;;;;;;;;;;;;;;;;;;
2021/11/24 17:33:45;;;;;;;;;;;;;;;;;;;;;
2021/11/24 17:40:49;;;;;;;;;;;;;;;20.40;34.85;101985.77;97963;1406;72152;-80
2021/11/24 17:47:07;;;;;;;;;;;;;;;;;;;;;
2021/11/24 17:50:45;;;;;;;;;;;;;;;;;;;;;
2021/11/24 18:07:33;;;;;;;;;;;;;;;20.44;34.66;101977.38;97082;1405;73319;-80
2021/11/24 18:10:50;;;;;;;;;;;;;;;20.44;34.62;101974.48;97303;1411;59567;-83
2021/11/24 18:20:31;;;;;;;;;;;;;;;20.46;34.55;101968.88;96687;1420;73446;-81
2021/11/24 18:23:46;;;;;;;;;;;;;;;20.46;34.50;101966.54;96762;1418;60877;-79
2021/11/24 18:26:47;;;;;;;;;;;;;;;20.46;34.55;101968.85;96924;1412;60870;-79
2021/11/24 18:30:04;;;;;;;;;;;;;;;20.47;34.47;101968.46;97187;1409;74037;-80
2021/11/24 18:32:48;;;;;;;;;;;;;;;;;;;;;
2021/11/24 18:36:39;;;;;;;;;;;;;;;20.47;34.50;101971.50;97237;1413;59801;-80
2021/11/24 18:43:14;;;;;;;;;;;;;;;20.48;34.44;101967.90;98362;1397;71624;-81
2021/11/24 18:46:30;;;;;;;;;;;;;;;20.48;34.45;101969.48;98817;1391;74300;-81
2021/11/24 18:49:56;;;;;;;;;;;;;;;20.49;34.36;101968.55;99333;1387;59822;-82
2021/11/24 18:52:41;;;;;;;;;;;;;;;;;;;;;
2021/11/24 19:09:35;;;;;;;;;;;;;;;20.51;34.26;101963.79;97508;1407;71640;-81
2021/11/24 19:13:02;;;;;;;;;;;;;;;20.51;34.30;101960.58;97844;1406;72116;-82
2021/11/24 19:16:18;;;;;;;;;;;;;;;;;;;;;
2021/11/24 19:22:43;;;;;;;;;;;;;;;20.50;34.26;101962.20;97319;1411;74170;-80
2021/11/24 19:29:01;;;;;;;;;;;;;;;;;;;;;
2021/11/24 19:32:20;;;;;;;;;;;;;;;;;;;;;
2021/11/24 19:39:44;;;;;;;;;;;;;;;20.52;34.20;101960.88;96934;1414;71153;-81
2021/11/24 19:43:10;;;;;;;;;;;;;;;20.52;34.10;101959.11;97590;1404;59918;-81
2021/11/24 19:45:44;;;;;;;;;;;;;;;;;;;;;
2021/11/24 19:52:47;;;;;;;;;;;;;;;20.53;34.15;101952.42;97384;1404;72124;-81
2021/11/24 19:56:24;;;;;;;;;;;;;;;;;;;;;
2021/11/24 20:02:46;;;;;;;;;;;;;;;20.54;34.11;101959.38;96859;1412;74423;-81
2021/11/24 20:09:36;;;;;;;;;;;;;;;;;;;;;
2021/11/24 20:19:57;;;;;;;;;;;;;;;;;;;;;
2021/11/24 20:23:34;;;;;;;;;;;;;;;;;;;;;
2021/11/24 20:27:15;;;;;;;;;;;;;;;20.57;33.98;101964.20;99583;1381;71488;-81
2021/11/24 20:30:09;;;;;;;;;;;;;;;;;;;;;
2021/11/24 20:43:54;;;;;;;;;;;;;;;20.58;33.89;101964.33;97249;1412;74722;-81
2021/11/24 20:47:21;;;;;;;;;;;;;;;20.58;33.89;101958.79;96885;1417;60700;-81
2021/11/24 20:57:31;;;;;;;;;;;;;;;;;;;;;
2021/11/24 21:00:59;;;;;;;;;;;;;;;20.58;33.89;101950.90;96741;1419;61372;-79
2021/11/24 21:04:16;;;;;;;;;;;;;;;;;;;;;
2021/11/24 21:07:25;;;;;;;;;;;;;;;;;;;;;
2021/11/24 21:10:52;;;;;;;;;;;;;;;20.59;33.83;101945.66;96860;1420;74887;-81
2021/11/24 21:14:09;;;;;;;;;;;;;;;;;;;;;
2021/11/24 21:21:14;;;;;;;;;;;;;;;;;;;;;
2021/11/24 21:28:19;;;;;;;;;;;;;;;20.59;33.82;101940.87;98520;1403;59857;-81
2021/11/24 21:31:21;;;;;;;;;;;;;;;20.60;33.74;101941.51;97837;1404;59871;-81
2021/11/24 21:34:51;;;;;;;;;;;;;;;20.60;33.76;101940.61;97657;1398;72862;-81
2021/11/24 21:38:03;;;;;;;;;;;;;;;;;;;;;
2021/11/24 21:45:09;;;;;;;;;;;;;;;20.60;33.80;101933.63;97029;1415;59777;-81
2021/11/24 21:48:09;;;;;;;;;;;;;;;;;;;;;
2021/11/24 21:58:11;;;;;;;;;;;;;;;20.62;33.72;101925.32;97313;1413;59806;-80
2021/11/24 22:05:32;;;;;;;;;;;;;;;20.62;33.71;101921.58;96649;1420;72247;-80
2021/11/24 22:15:20;;;;;;;;;;;;;;;20.63;33.64;101919.91;97422;1406;70604;-81
2021/11/24 22:18:12;;;;;;;;;;;;;;;20.63;33.68;101919.36;97527;1407;74485;-81
2021/11/24 22:25:29;;;;;;;;;;;;;;;20.63;33.66;101911.31;97417;1413;59708;-81
2021/11/24 22:28:07;;;;;;;;;;;;;;;;;;;;;
2021/11/24 22:31:24;;;;;;;;;;;;;;;;;;;;;
2021/11/24 22:34:33;;;;;;;;;;;;;;;20.64;33.57;101904.83;97702;1402;59813;-81
2021/11/24 22:38:24;;;;;;;;;;;;;;;20.64;33.65;101903.23;97681;1408;59693;-80
2021/11/24 22:41:09;;;;;;;;;;;;;;;20.64;33.54;101903.55;97166;1411;72741;-81
2021/11/24 22:45:00;;;;;;;;;;;;;;;20.64;33.60;101898.73;97391;1404;71869;-80
2021/11/24 22:48:02;;;;;;;;;;;;;;;20.64;33.55;101898.73;97124;1414;59814;-81
2021/11/24 23:04:41;;;;;;;;;;;;;;;;;;;;;
2021/11/24 23:07:37;;;;;;;;;;;;;;;;;;;;;
2021/11/24 23:10:33;;;;;;;;;;;;;;;;;;;;;
2021/11/24 23:13:30;;;;;;;;;;;;;;;;;;;;;
2021/11/24 23:16:57;;;;;;;;;;;;;;;20.65;33.44;101876.52;96917;1417;60032;-81
2021/11/24 23:23:53;;;;;;;;;;;;;;;20.65;33.36;101870.98;97448;1405;71955;-81
2021/11/24 23:26:55;;;;;;;;;;;;;;;20.65;33.38;101869.70;96935;1416;59839;-80
2021/11/24 23:30:02;;;;;;;;;;;;;;;20.65;33.42;101865.23;96944;1411;60684;-81
2021/11/24 23:33:19;;;;;;;;;;;;;;;20.66;33.42;101862.00;96880;1417;71642;-80
2021/11/24 23:36:16;;;;;;;;;;;;;;;;;;;;;
2021/11/24 23:40:17;;;;;;;;;;;;;;;20.67;33.32;101854.78;97787;1402;59783;-81
2021/11/24 23:50:03;;;;;;;;;;;;;;;;;;;;;
2021/11/24 23:53:02;;;;;;;;;;;;;;;;;;;;;
2021/11/24 23:59:38;;;;;;;;;;;;;;;20.67;33.27;101850.27;96846;1417;72962;-80
